createdAt,value
2023-03-26T00:02:04.319Z,4.40
2023-03-26T00:04:33.660Z,4.60
2023-03-26T00:07:01.802Z,4.60
2023-03-26T00:09:30.490Z,4.70
2023-03-26T00:11:58.443Z,4.50
2023-03-26T00:14:26.837Z,4.70
2023-03-26T00:16:54.791Z,4.60
2023-03-26T00:19:24.085Z,4.70
2023-03-26T00:21:53.105Z,4.60
2023-03-26T00:24:21.083Z,4.50
2023-03-26T00:26:53.363Z,4.50
2023-03-26T00:29:22.867Z,4.60
2023-03-26T00:31:50.940Z,4.60
2023-03-26T00:34:19.196Z,4.60
2023-03-26T00:36:54.198Z,4.50
2023-03-26T00:39:24.051Z,4.50
2023-03-26T00:41:54.421Z,4.50
2023-03-26T00:44:23.017Z,4.40
2023-03-26T00:46:51.012Z,4.40
2023-03-26T00:49:18.908Z,4.50
2023-03-26T00:51:48.363Z,4.40
2023-03-26T00:54:16.464Z,4.40
2023-03-26T00:56:44.375Z,4.50
2023-03-26T00:59:12.458Z,4.60
2023-03-26T01:01:40.581Z,4.50
2023-03-26T01:04:28.213Z,4.50
2023-03-26T01:06:59.810Z,4.40
2023-03-26T01:09:35.930Z,4.60
2023-03-26T01:12:07.824Z,4.50
2023-03-26T01:14:36.424Z,4.60
2023-03-26T01:17:06.114Z,4.50
2023-03-26T01:19:40.713Z,4.70
2023-03-26T01:22:12.485Z,4.30
2023-03-26T01:24:43.654Z,4.20
2023-03-26T01:27:20.984Z,4.30
2023-03-26T01:29:55.023Z,4.30
2023-03-26T01:32:35.654Z,4.30
2023-03-26T01:35:14.665Z,4.40
2023-03-26T01:37:58.474Z,4.40
2023-03-26T01:40:31.708Z,4.50
2023-03-26T01:43:09.968Z,4.30
2023-03-26T01:45:41.264Z,4.30
2023-03-26T01:48:09.947Z,4.30
2023-03-26T01:50:37.896Z,4.20
2023-03-26T01:53:07.168Z,4.30
2023-03-26T01:55:49.598Z,4.20
2023-03-26T01:58:27.280Z,4.20
2023-03-26T02:01:12.602Z,4.50
2023-03-26T02:03:44.919Z,4.50
2023-03-26T02:06:21.334Z,4.40
2023-03-26T02:08:53.895Z,4.20
2023-03-26T02:11:23.553Z,4.30
2023-03-26T02:13:52.782Z,4.30
2023-03-26T02:16:21.786Z,4.30
2023-03-26T02:18:55.613Z,4.20
2023-03-26T02:21:26.171Z,4.30
2023-03-26T02:23:57.870Z,4.50
2023-03-26T02:26:27.391Z,4.30
2023-03-26T02:28:55.267Z,4.20
2023-03-26T02:31:26.362Z,4.30
2023-03-26T02:33:55.666Z,4.30
2023-03-26T02:36:27.285Z,4.20
2023-03-26T02:38:57.734Z,4.30
2023-03-26T02:41:27.252Z,4.10
2023-03-26T02:43:55.126Z,4.20
2023-03-26T02:46:23.159Z,4.20
2023-03-26T02:48:51.080Z,4.20
2023-03-26T02:51:19.558Z,4.30
2023-03-26T02:53:47.469Z,4.20
2023-03-26T02:56:15.371Z,4.00
2023-03-26T02:58:44.852Z,4.00
2023-03-26T03:01:13.029Z,4.10
2023-03-26T03:03:41.484Z,4.00
2023-03-26T03:06:10.071Z,4.00
2023-03-26T03:08:38.085Z,4.10
2023-03-26T03:11:10.982Z,4.10
2023-03-26T03:13:39.090Z,4.20
2023-03-26T03:16:09.407Z,4.40
2023-03-26T03:18:37.629Z,4.30
2023-03-26T03:21:06.669Z,4.40
2023-03-26T03:23:34.800Z,4.30
2023-03-26T03:26:02.947Z,4.20
2023-03-26T03:28:31.166Z,4.20
2023-03-26T03:30:59.185Z,4.20
2023-03-26T03:33:28.496Z,4.00
2023-03-26T03:35:56.609Z,4.00
2023-03-26T03:38:24.849Z,4.00
2023-03-26T03:40:54.296Z,4.00
2023-03-26T03:43:22.281Z,4.00
2023-03-26T03:45:50.295Z,3.90
2023-03-26T03:48:18.980Z,3.90
2023-03-26T03:50:48.273Z,4.10
2023-03-26T03:53:16.303Z,4.00
2023-03-26T03:55:53.422Z,3.90
2023-03-26T03:58:22.720Z,4.10
2023-03-26T04:00:50.863Z,4.00
2023-03-26T04:03:20.196Z,3.80
2023-03-26T04:06:06.768Z,3.80
2023-03-26T04:08:34.864Z,4.00
2023-03-26T04:11:03.044Z,3.80
2023-03-26T04:13:31.268Z,3.90
2023-03-26T04:15:59.345Z,3.70
2023-03-26T04:18:27.732Z,3.70
2023-03-26T04:20:55.853Z,3.70
2023-03-26T04:23:26.659Z,3.90
2023-03-26T04:25:56.726Z,3.90
2023-03-26T04:28:30.358Z,3.80
2023-03-26T04:31:02.110Z,3.80
2023-03-26T04:33:31.576Z,3.70
2023-03-26T04:36:02.926Z,3.70
2023-03-26T04:38:37.268Z,3.80
2023-03-26T04:41:07.560Z,3.90
2023-03-26T04:43:36.603Z,3.80
2023-03-26T04:46:04.659Z,3.80
2023-03-26T04:48:32.706Z,4.00
2023-03-26T04:51:01.316Z,4.00
2023-03-26T04:53:29.419Z,4.00
2023-03-26T04:56:02.394Z,4.40
2023-03-26T04:58:32.989Z,4.10
2023-03-26T05:01:10.176Z,4.10
2023-03-26T05:03:41.254Z,4.20
2023-03-26T05:06:12.434Z,4.10
2023-03-26T05:08:41.679Z,4.20
2023-03-26T05:11:11.936Z,4.00
2023-03-26T05:13:42.729Z,3.90
2023-03-26T05:16:11.417Z,4.10
2023-03-26T05:18:39.380Z,4.30
2023-03-26T05:21:08.291Z,4.40
2023-03-26T05:23:36.244Z,4.40
2023-03-26T05:26:04.659Z,4.30
2023-03-26T05:28:34.156Z,4.20
2023-03-26T05:31:02.560Z,4.50
2023-03-26T05:33:30.730Z,4.50
2023-03-26T05:36:03.197Z,4.50
2023-03-26T05:38:31.530Z,4.60
2023-03-26T05:41:00.567Z,4.30
2023-03-26T05:43:28.522Z,4.20
2023-03-26T05:45:58.210Z,4.30
2023-03-26T05:48:26.896Z,4.50
2023-03-26T05:50:57.488Z,4.40
2023-03-26T05:53:27.136Z,4.40
2023-03-26T05:55:57.756Z,4.30
2023-03-26T05:58:26.268Z,4.30
2023-03-26T06:01:05.998Z,4.40
2023-03-26T06:03:34.631Z,4.50
2023-03-26T06:06:03.759Z,4.60
2023-03-26T06:08:32.109Z,4.70
2023-03-26T06:11:01.027Z,4.40
2023-03-26T06:13:29.069Z,4.70
2023-03-26T06:15:58.178Z,4.60
2023-03-26T06:18:27.762Z,4.90
2023-03-26T06:20:55.973Z,5.40
2023-03-26T06:23:24.117Z,5.90
2023-03-26T06:25:52.116Z,6.20
2023-03-26T06:28:20.216Z,6.80
2023-03-26T06:30:48.248Z,7.10
2023-03-26T06:33:16.152Z,7.10
2023-03-26T06:35:45.881Z,6.70
2023-03-26T06:38:14.301Z,7.40
2023-03-26T06:40:42.345Z,7.70
2023-03-26T06:43:11.085Z,8.20
2023-03-26T06:45:39.393Z,7.80
2023-03-26T06:48:08.278Z,8.00
2023-03-26T06:50:36.322Z,7.90
2023-03-26T06:53:05.636Z,8.40
2023-03-26T06:55:33.607Z,8.90
2023-03-26T06:58:01.626Z,9.30
2023-03-26T07:00:29.616Z,9.30
2023-03-26T07:02:57.745Z,9.00
2023-03-26T07:05:25.787Z,8.40
2023-03-26T07:07:53.810Z,7.80
2023-03-26T07:10:23.238Z,7.90
2023-03-26T07:12:51.348Z,8.20
2023-03-26T07:15:19.457Z,8.60
2023-03-26T07:17:47.452Z,9.50
2023-03-26T07:20:15.442Z,9.00
2023-03-26T07:22:44.003Z,8.90
2023-03-26T07:25:13.610Z,9.00
2023-03-26T07:27:53.374Z,9.30
2023-03-26T07:30:27.118Z,9.20
2023-03-26T07:33:02.479Z,8.80
2023-03-26T07:35:38.192Z,9.30
2023-03-26T07:38:21.411Z,9.40
2023-03-26T07:40:58.682Z,9.60
2023-03-26T07:43:41.917Z,9.60
2023-03-26T07:46:12.786Z,9.30
2023-03-26T07:48:42.664Z,8.50
2023-03-26T07:51:12.028Z,7.70
2023-03-26T07:53:40.382Z,7.70
2023-03-26T07:56:15.422Z,7.70
2023-03-26T07:59:00.354Z,7.50
2023-03-26T08:01:42.058Z,7.50
2023-03-26T08:04:36.043Z,8.10
2023-03-26T08:07:09.361Z,8.10
2023-03-26T08:09:45.376Z,7.90
2023-03-26T08:12:21.366Z,8.00
2023-03-26T08:15:00.224Z,8.40
2023-03-26T08:17:38.007Z,8.90
2023-03-26T08:20:21.219Z,8.20
2023-03-26T08:22:56.894Z,8.40
2023-03-26T08:25:33.017Z,8.50
2023-03-26T08:28:18.728Z,8.50
2023-03-26T08:30:48.714Z,8.60
2023-03-26T08:33:20.490Z,8.60
2023-03-26T08:35:49.507Z,8.90
2023-03-26T08:38:19.572Z,9.00
2023-03-26T08:41:25.139Z,8.60
2023-03-26T08:44:25.821Z,8.90
2023-03-26T08:47:29.701Z,8.90
2023-03-26T08:50:25.564Z,9.00
2023-03-26T08:53:14.052Z,9.20
2023-03-26T08:55:50.463Z,9.10
2023-03-26T08:58:56.316Z,9.30
2023-03-26T09:01:50.613Z,9.00
2023-03-26T09:04:48.369Z,8.90
2023-03-26T09:07:50.519Z,8.70
2023-03-26T09:10:46.434Z,8.80
2023-03-26T09:13:46.521Z,8.80
2023-03-26T09:16:38.466Z,9.10
2023-03-26T09:19:36.566Z,8.90
2023-03-26T09:22:41.085Z,8.80
2023-03-26T09:25:42.934Z,8.80
2023-03-26T09:28:44.849Z,9.00
2023-03-26T09:31:32.558Z,9.40
2023-03-26T09:34:20.084Z,9.00
2023-03-26T09:37:05.784Z,8.40
2023-03-26T09:39:43.676Z,8.50
2023-03-26T09:42:23.241Z,8.70
2023-03-26T09:45:42.685Z,8.60
2023-03-26T09:48:39.764Z,8.30
2023-03-26T09:51:29.881Z,8.50
2023-03-26T09:54:13.857Z,9.20
2023-03-26T09:56:50.625Z,9.30
2023-03-26T09:59:53.564Z,9.60
2023-03-26T10:02:54.888Z,9.40
2023-03-26T10:05:45.512Z,9.60
2023-03-26T10:08:35.698Z,10.10
2023-03-26T10:11:10.602Z,10.10
2023-03-26T10:13:50.926Z,10.00
2023-03-26T10:16:31.303Z,9.50
2023-03-26T10:19:18.156Z,9.90
2023-03-26T10:21:52.448Z,9.60
2023-03-26T10:24:49.375Z,9.70
2023-03-26T10:27:35.909Z,9.50
2023-03-26T10:30:42.775Z,9.90
2023-03-26T10:33:25.086Z,10.00
2023-03-26T10:36:03.198Z,9.80
2023-03-26T10:38:50.753Z,9.80
2023-03-26T10:41:23.234Z,9.80
2023-03-26T10:44:27.100Z,9.60
2023-03-26T10:47:43.820Z,10.10
2023-03-26T10:50:41.766Z,9.90
2023-03-26T10:53:15.071Z,9.80
2023-03-26T10:55:46.837Z,9.90
2023-03-26T10:58:22.707Z,10.70
2023-03-26T11:00:56.262Z,11.10
2023-03-26T11:03:46.789Z,10.80
2023-03-26T11:06:31.472Z,10.90
2023-03-26T11:09:08.194Z,9.90
2023-03-26T11:11:46.136Z,9.90
2023-03-26T11:14:33.753Z,10.00
2023-03-26T11:17:14.976Z,10.80
2023-03-26T11:20:05.817Z,10.60
2023-03-26T11:22:45.244Z,11.20
2023-03-26T11:25:28.850Z,11.10
2023-03-26T11:28:11.217Z,10.60
2023-03-26T11:30:47.869Z,10.50
2023-03-26T11:33:20.503Z,10.70
2023-03-26T11:35:51.831Z,10.80
2023-03-26T11:38:27.197Z,10.50
2023-03-26T11:40:59.093Z,10.50
2023-03-26T11:43:31.850Z,10.60
2023-03-26T11:46:01.840Z,10.60
2023-03-26T11:48:34.388Z,10.70
2023-03-26T11:51:07.303Z,10.50
2023-03-26T11:53:40.709Z,10.30
2023-03-26T11:56:15.052Z,10.10
2023-03-26T11:58:51.197Z,9.90
2023-03-26T12:01:30.525Z,9.60
2023-03-26T12:04:05.545Z,9.70
2023-03-26T12:06:34.464Z,9.70
2023-03-26T12:09:04.036Z,9.70
2023-03-26T12:11:35.397Z,10.10
2023-03-26T12:14:05.855Z,9.80
2023-03-26T12:16:35.876Z,9.70
2023-03-26T12:19:07.293Z,9.30
2023-03-26T12:21:46.691Z,9.00
2023-03-26T12:24:29.481Z,9.00
2023-03-26T12:27:02.948Z,9.30
2023-03-26T12:29:34.379Z,9.10
2023-03-26T12:32:08.309Z,9.20
2023-03-26T12:34:38.309Z,9.50
2023-03-26T12:37:07.983Z,9.20
2023-03-26T12:40:07.250Z,9.20
2023-03-26T12:44:51.111Z,9.20
2023-03-26T12:45:17.953Z,8.80
2023-03-26T12:47:57.928Z,8.90
2023-03-26T12:50:39.473Z,9.00
2023-03-26T12:53:22.057Z,9.20
2023-03-26T12:56:00.661Z,9.20
2023-03-26T12:58:55.028Z,9.20
2023-03-26T13:01:30.624Z,9.30
2023-03-26T13:04:14.478Z,9.30
2023-03-26T13:06:48.496Z,9.40
2023-03-26T13:09:40.840Z,9.40
2023-03-26T13:12:18.196Z,9.30
2023-03-26T13:15:05.987Z,9.30
2023-03-26T13:17:41.031Z,9.20
2023-03-26T13:20:15.681Z,8.80
2023-03-26T13:22:51.689Z,8.50
2023-03-26T13:25:38.801Z,8.20
2023-03-26T13:28:21.376Z,8.30
2023-03-26T13:30:58.790Z,8.20
2023-03-26T13:33:43.348Z,8.20
2023-03-26T13:36:23.854Z,8.30
2023-03-26T13:39:04.895Z,8.10
2023-03-26T13:41:44.058Z,7.20
2023-03-26T13:44:20.530Z,7.20
2023-03-26T13:46:53.300Z,7.00
2023-03-26T13:49:26.696Z,6.70
2023-03-26T13:51:59.214Z,6.80
2023-03-26T13:54:32.583Z,7.00
2023-03-26T13:57:06.560Z,7.00
2023-03-26T13:59:41.562Z,7.40
2023-03-26T14:02:15.987Z,7.60
2023-03-26T14:04:47.800Z,7.40
2023-03-26T14:07:22.505Z,7.30
2023-03-26T14:09:55.827Z,7.50
2023-03-26T14:12:33.368Z,7.40
2023-03-26T14:15:05.958Z,7.40
2023-03-26T14:17:40.578Z,7.40
2023-03-26T14:20:40.921Z,7.30
2023-03-26T14:23:31.933Z,7.50
2023-03-26T14:26:15.787Z,7.50
2023-03-26T14:29:29.112Z,7.60
2023-03-26T14:32:16.396Z,7.50
2023-03-26T14:35:13.091Z,7.30
2023-03-26T14:37:57.470Z,7.20
2023-03-26T14:40:48.877Z,7.20
2023-03-26T14:43:56.441Z,7.00
2023-03-26T14:46:59.783Z,7.20
2023-03-26T14:50:10.730Z,7.50
2023-03-26T14:52:48.515Z,7.40
2023-03-26T14:55:36.281Z,7.40
2023-03-26T14:58:23.007Z,7.50
2023-03-26T15:01:25.957Z,7.50
2023-03-26T15:04:21.517Z,7.60
2023-03-26T15:07:23.202Z,7.60
2023-03-26T15:10:49.475Z,7.50
2023-03-26T15:13:51.134Z,7.60
2023-03-26T15:16:52.587Z,7.60
2023-03-26T15:20:02.184Z,7.60
2023-03-26T15:22:59.461Z,7.60
2023-03-26T15:26:14.305Z,7.70
2023-03-26T15:29:14.995Z,7.50
2023-03-26T15:32:26.789Z,7.50
2023-03-26T15:35:24.525Z,7.80
2023-03-26T15:38:46.408Z,7.50
2023-03-26T15:41:26.853Z,7.50
2023-03-26T15:44:33.020Z,7.80
2023-03-26T15:47:32.537Z,8.00
2023-03-26T15:50:11.190Z,8.00
2023-03-26T15:52:48.766Z,8.10
2023-03-26T15:55:27.904Z,7.90
2023-03-26T15:58:04.092Z,7.90
2023-03-26T16:00:35.435Z,7.90
2023-03-26T16:03:25.453Z,8.00
2023-03-26T16:06:34.738Z,8.00
2023-03-26T16:09:16.992Z,8.10
2023-03-26T16:11:53.580Z,8.00
2023-03-26T16:14:25.464Z,7.80
2023-03-26T16:16:58.541Z,7.80
2023-03-26T16:19:51.888Z,7.70
2023-03-26T16:22:45.740Z,7.70
2023-03-26T16:25:29.111Z,7.50
2023-03-26T16:28:29.159Z,7.30
2023-03-26T16:31:37.521Z,7.30
2023-03-26T16:34:26.248Z,7.50
2023-03-26T16:36:54.716Z,7.60
2023-03-26T16:39:38.577Z,7.70
2023-03-26T16:42:27.375Z,7.30
2023-03-26T16:45:07.383Z,7.40
2023-03-26T16:47:43.970Z,7.30
2023-03-26T16:50:20.697Z,7.30
2023-03-26T16:52:55.919Z,7.30
2023-03-26T16:55:29.797Z,7.20
2023-03-26T16:58:06.854Z,7.10
2023-03-26T17:00:49.126Z,7.30
2023-03-26T17:03:31.692Z,7.30
2023-03-26T17:06:15.834Z,7.30
2023-03-26T17:08:55.232Z,7.30
2023-03-26T17:11:31.501Z,7.00
2023-03-26T17:14:09.270Z,6.90
2023-03-26T17:16:44.513Z,6.80
2023-03-26T17:19:29.769Z,6.80
2023-03-26T17:22:04.440Z,6.60
2023-03-26T17:24:43.754Z,6.60
2023-03-26T17:27:28.009Z,6.60
2023-03-26T17:30:24.799Z,6.80
2023-03-26T17:32:55.443Z,6.90
2023-03-26T17:35:40.897Z,6.70
2023-03-26T17:38:46.580Z,6.70
2023-03-26T17:41:35.588Z,6.70
2023-03-26T17:44:29.220Z,6.60
2023-03-26T17:46:58.748Z,6.70
2023-03-26T17:49:31.121Z,6.70
2023-03-26T17:52:04.751Z,6.60
2023-03-26T17:54:39.338Z,6.50
2023-03-26T17:57:13.502Z,6.50
2023-03-26T17:59:43.696Z,6.60
2023-03-26T18:02:17.003Z,6.50
2023-03-26T18:04:48.208Z,6.50
2023-03-26T18:07:52.755Z,6.50
2023-03-26T18:10:35.021Z,6.40
2023-03-26T18:13:34.369Z,6.40
2023-03-26T18:16:13.774Z,6.40
2023-03-26T18:18:48.901Z,6.40
2023-03-26T18:21:22.673Z,6.30
2023-03-26T18:23:54.014Z,6.30
2023-03-26T18:26:34.663Z,6.20
2023-03-26T18:29:17.656Z,6.20
2023-03-26T18:31:49.017Z,6.30
2023-03-26T18:34:18.817Z,6.20
2023-03-26T18:36:47.225Z,6.30
2023-03-26T18:39:20.202Z,6.10
2023-03-26T18:41:48.311Z,6.10
2023-03-26T18:44:18.872Z,5.80
2023-03-26T18:46:47.428Z,5.90
2023-03-26T18:49:17.555Z,6.00
2023-03-26T18:51:56.175Z,6.00
2023-03-26T18:54:33.762Z,5.90
2023-03-26T18:57:16.001Z,5.90
2023-03-26T18:59:45.380Z,5.90
2023-03-26T19:02:16.297Z,5.70
2023-03-26T19:04:47.051Z,5.70
2023-03-26T19:07:18.064Z,5.70
2023-03-26T19:09:48.608Z,5.80
2023-03-26T19:12:22.818Z,5.80
2023-03-26T19:14:58.372Z,5.80
2023-03-26T19:17:30.973Z,5.80
2023-03-26T19:19:59.314Z,5.70
2023-03-26T19:22:29.261Z,5.70
2023-03-26T19:25:01.574Z,5.70
2023-03-26T19:27:30.212Z,5.60
2023-03-26T19:29:58.816Z,5.60
2023-03-26T19:32:32.217Z,5.60
2023-03-26T19:35:02.008Z,5.50
2023-03-26T19:37:31.757Z,5.30
2023-03-26T19:40:14.782Z,5.20
2023-03-26T19:42:45.109Z,5.10
2023-03-26T19:45:18.590Z,5.10
2023-03-26T19:48:00.048Z,5.10
2023-03-26T19:50:36.956Z,5.00
2023-03-26T19:53:18.815Z,5.00
2023-03-26T19:56:13.339Z,5.10
2023-03-26T19:58:42.209Z,5.10
2023-03-26T20:01:16.598Z,5.10
2023-03-26T20:03:46.824Z,5.10
2023-03-26T20:06:16.632Z,5.10
2023-03-26T20:08:44.966Z,5.10
2023-03-26T20:11:19.316Z,5.00
2023-03-26T20:13:47.488Z,5.00
2023-03-26T20:16:28.358Z,5.00
2023-03-26T20:18:57.846Z,5.00
2023-03-26T20:21:26.464Z,5.00
2023-03-26T20:23:54.702Z,5.00
2023-03-26T20:26:25.124Z,5.00
2023-03-26T20:28:54.496Z,5.00
2023-03-26T20:31:25.088Z,5.00
2023-03-26T20:33:54.767Z,5.00
2023-03-26T20:36:33.626Z,5.00
2023-03-26T20:39:06.446Z,5.00
2023-03-26T20:41:38.074Z,5.00
2023-03-26T20:44:13.560Z,4.90
2023-03-26T20:46:41.705Z,4.90
2023-03-26T20:49:10.504Z,4.90
2023-03-26T20:51:39.144Z,4.90
2023-03-26T20:54:07.747Z,4.90
2023-03-26T20:56:41.579Z,4.90
2023-03-26T20:59:11.789Z,4.90
2023-03-26T21:01:39.926Z,4.80
2023-03-26T21:04:08.054Z,4.80
2023-03-26T21:06:36.047Z,4.80
2023-03-26T21:09:04.830Z,4.60
2023-03-26T21:11:53.686Z,4.40
2023-03-26T21:14:24.007Z,4.40
2023-03-26T21:16:52.682Z,4.40
2023-03-26T21:19:21.305Z,4.60
2023-03-26T21:21:58.997Z,4.60
2023-03-26T21:24:42.297Z,4.60
2023-03-26T21:27:18.302Z,4.50
2023-03-26T21:29:46.705Z,4.50
2023-03-26T21:32:15.346Z,4.50
2023-03-26T21:34:55.593Z,4.50
2023-03-26T21:37:27.089Z,4.50
2023-03-26T21:39:56.008Z,4.40
2023-03-26T21:42:26.875Z,4.60
2023-03-26T21:44:56.031Z,4.60
2023-03-26T21:47:24.357Z,4.30
2023-03-26T21:49:54.632Z,4.40
2023-03-26T21:52:23.859Z,4.40
2023-03-26T21:54:52.864Z,4.40
2023-03-26T21:57:43.369Z,4.40
2023-03-26T22:00:16.276Z,4.40
2023-03-26T22:03:02.684Z,4.10
2023-03-26T22:05:38.743Z,4.10
2023-03-26T22:08:08.065Z,4.10
2023-03-26T22:10:37.302Z,4.10
2023-03-26T22:13:06.640Z,4.20
2023-03-26T22:15:35.345Z,4.00
2023-03-26T22:18:03.959Z,4.00
2023-03-26T22:20:32.437Z,4.00
2023-03-26T22:23:01.011Z,4.10
2023-03-26T22:25:29.016Z,4.00
2023-03-26T22:27:57.533Z,3.90
2023-03-26T22:30:27.218Z,3.90
2023-03-26T22:32:55.639Z,3.80
2023-03-26T22:35:23.699Z,3.90
2023-03-26T22:37:51.615Z,3.80
2023-03-26T22:40:20.488Z,3.90
2023-03-26T22:42:48.485Z,3.80
2023-03-26T22:45:17.149Z,3.80
2023-03-26T22:47:46.542Z,3.80
2023-03-26T22:50:14.627Z,3.90
2023-03-26T22:52:42.578Z,3.80
2023-03-26T22:55:11.731Z,3.90
2023-03-26T22:57:41.293Z,4.00
2023-03-26T23:00:16.176Z,4.00
2023-03-26T23:02:46.685Z,4.00
2023-03-26T23:05:17.339Z,4.00
2023-03-26T23:07:46.121Z,4.00
2023-03-26T23:10:14.672Z,4.00
2023-03-26T23:12:42.640Z,4.00
2023-03-26T23:15:11.446Z,4.00
2023-03-26T23:17:39.692Z,4.00
2023-03-26T23:20:14.621Z,4.10
2023-03-26T23:22:43.638Z,4.00
2023-03-26T23:25:12.465Z,4.10
2023-03-26T23:27:41.426Z,4.10
2023-03-26T23:30:11.732Z,4.10
2023-03-26T23:32:40.637Z,4.10
2023-03-26T23:35:11.115Z,4.10
2023-03-26T23:37:42.184Z,4.10
2023-03-26T23:40:12.398Z,4.00
2023-03-26T23:42:40.431Z,4.10
2023-03-26T23:45:09.244Z,4.00
2023-03-26T23:47:41.968Z,4.00
2023-03-26T23:50:12.870Z,4.10
2023-03-26T23:52:40.979Z,4.00
2023-03-26T23:55:09.636Z,4.10
2023-03-26T23:57:37.772Z,4.00
